createdAt,value
2019-03-10T00:01:32.738Z,99937.81
2019-03-10T00:03:07.864Z,99938.31
2019-03-10T00:04:42.637Z,99934.50
2019-03-10T00:06:17.063Z,99944.84
2019-03-10T00:07:51.466Z,99925.49
2019-03-10T00:09:25.940Z,99938.98
2019-03-10T00:11:00.991Z,99950.30
2019-03-10T00:12:35.590Z,99952.09
2019-03-10T00:14:10.181Z,99951.55
2019-03-10T00:15:45.166Z,99954.06
2019-03-10T00:17:19.600Z,99949.42
2019-03-10T00:18:54.025Z,99948.97
2019-03-10T00:20:28.637Z,99943.29
2019-03-10T00:22:03.277Z,99952.48
2019-03-10T00:23:37.698Z,99950.16
2019-03-10T00:25:12.558Z,99949.27
2019-03-10T00:26:46.910Z,99958.55
2019-03-10T00:28:21.549Z,99954.91
2019-03-10T00:29:56.172Z,99956.50
2019-03-10T00:31:30.641Z,99944.36
2019-03-10T00:33:05.320Z,99940.63
2019-03-10T00:34:39.707Z,99928.68
2019-03-10T00:36:14.578Z,99930.83
2019-03-10T00:37:48.981Z,99926.28
2019-03-10T00:40:17.212Z,99935.09
2019-03-10T00:42:32.312Z,99939.96
2019-03-10T00:44:42.620Z,99939.23
2019-03-10T00:47:13.270Z,99940.27
2019-03-10T00:49:22.188Z,99926.70
2019-03-10T00:51:26.603Z,99940.16
2019-03-10T00:53:01.539Z,99933.70
2019-03-10T00:54:35.949Z,99935.75
2019-03-10T00:56:10.546Z,99932.55
2019-03-10T00:57:44.969Z,99936.41
2019-03-10T00:59:19.519Z,99937.12
2019-03-10T01:00:54.234Z,99947.55
2019-03-10T01:02:28.704Z,99947.30
2019-03-10T01:04:03.048Z,99946.22
2019-03-10T01:05:37.637Z,99946.28
2019-03-10T01:07:12.357Z,99945.72
2019-03-10T01:08:46.815Z,99950.92
2019-03-10T01:10:21.289Z,99960.56
2019-03-10T01:11:55.795Z,99963.47
2019-03-10T01:13:30.587Z,99957.96
2019-03-10T01:15:05.642Z,99945.22
2019-03-10T01:16:40.808Z,99948.23
2019-03-10T01:18:15.605Z,99950.59
2019-03-10T01:19:50.971Z,99937.98
2019-03-10T01:21:26.878Z,99939.91
2019-03-10T01:23:01.586Z,99945.93
2019-03-10T01:24:36.035Z,99939.92
2019-03-10T01:26:10.470Z,99944.31
2019-03-10T01:27:44.841Z,99957.37
2019-03-10T01:29:19.596Z,99949.77
2019-03-10T01:31:07.410Z,99952.45
2019-03-10T01:33:17.761Z,99958.30
2019-03-10T01:35:21.899Z,99960.59
2019-03-10T01:36:56.301Z,99953.41
2019-03-10T01:38:30.765Z,99945.45
2019-03-10T01:40:06.239Z,99953.38
2019-03-10T01:41:41.034Z,99952.30
2019-03-10T01:43:15.418Z,99939.03
2019-03-10T01:44:49.820Z,99944.70
2019-03-10T01:46:24.584Z,99927.38
2019-03-10T01:47:59.491Z,99936.66
2019-03-10T01:49:34.634Z,99927.11
2019-03-10T01:51:09.024Z,99927.01
2019-03-10T01:52:43.891Z,99923.41
2019-03-10T01:54:18.620Z,99917.24
2019-03-10T01:55:53.138Z,99920.30
2019-03-10T01:57:27.505Z,99914.81
2019-03-10T01:59:01.878Z,99919.22
2019-03-10T02:00:36.355Z,99915.77
2019-03-10T02:02:10.800Z,99917.20
2019-03-10T02:03:45.423Z,99920.13
2019-03-10T02:05:20.157Z,99912.64
2019-03-10T02:06:54.566Z,99912.97
2019-03-10T02:08:29.177Z,99893.43
2019-03-10T02:10:04.130Z,99900.83
2019-03-10T02:11:39.433Z,99899.64
2019-03-10T02:13:14.559Z,99895.48
2019-03-10T02:14:49.585Z,99885.19
2019-03-10T02:16:24.375Z,99901.39
2019-03-10T02:17:59.146Z,99895.77
2019-03-10T02:19:34.033Z,99889.95
2019-03-10T02:21:09.098Z,99885.65
2019-03-10T02:22:44.210Z,99891.78
2019-03-10T02:24:23.636Z,99885.61
2019-03-10T02:25:56.825Z,99878.88
2019-03-10T02:27:32.044Z,99882.78
2019-03-10T02:29:06.810Z,99879.70
2019-03-10T02:30:42.150Z,99881.85
2019-03-10T02:32:16.958Z,99882.75
2019-03-10T02:33:52.023Z,99884.72
2019-03-10T02:35:27.039Z,99884.27
2019-03-10T02:37:01.849Z,99881.34
2019-03-10T02:38:36.669Z,99880.98
2019-03-10T02:40:11.866Z,99879.95
2019-03-10T02:41:46.678Z,99877.64
2019-03-10T02:43:21.491Z,99880.86
2019-03-10T02:44:56.800Z,99872.33
2019-03-10T02:46:32.100Z,99869.44
2019-03-10T02:48:07.336Z,99854.83
2019-03-10T02:49:42.352Z,99861.27
2019-03-10T02:51:17.604Z,99865.73
2019-03-10T02:52:52.630Z,99863.13
2019-03-10T02:54:27.413Z,99865.00
2019-03-10T02:56:02.225Z,99856.73
2019-03-10T02:57:37.571Z,99851.63
2019-03-10T02:59:12.362Z,99853.03
2019-03-10T03:00:47.124Z,99852.20
2019-03-10T03:02:22.216Z,99855.92
2019-03-10T03:03:57.300Z,99850.98
2019-03-10T03:05:32.382Z,99853.16
2019-03-10T03:07:07.157Z,99839.66
2019-03-10T03:08:41.967Z,99840.42
2019-03-10T03:10:17.109Z,99845.66
2019-03-10T03:11:52.309Z,99834.78
2019-03-10T03:13:27.161Z,99832.06
2019-03-10T03:15:02.586Z,99830.85
2019-03-10T03:16:37.417Z,99823.92
2019-03-10T03:18:12.474Z,99827.36
2019-03-10T03:19:47.768Z,99816.30
2019-03-10T03:21:23.037Z,99820.56
2019-03-10T03:22:58.100Z,99829.73
2019-03-10T03:24:33.241Z,99819.95
2019-03-10T03:26:08.070Z,99822.06
2019-03-10T03:27:43.142Z,99818.07
2019-03-10T03:29:18.166Z,99814.67
2019-03-10T03:30:52.983Z,99811.66
2019-03-10T03:32:34.685Z,99807.27
2019-03-10T03:34:09.940Z,99811.20
2019-03-10T03:36:06.447Z,99805.08
2019-03-10T03:37:41.506Z,99804.17
2019-03-10T03:39:24.020Z,99799.25
2019-03-10T03:41:02.817Z,99805.01
2019-03-10T03:42:37.824Z,99802.05
2019-03-10T03:44:12.883Z,99800.43
2019-03-10T03:45:47.995Z,99790.21
2019-03-10T03:47:22.838Z,99786.66
2019-03-10T03:48:57.855Z,99795.81
2019-03-10T03:50:32.671Z,99782.99
2019-03-10T03:52:08.181Z,99790.48
2019-03-10T03:53:43.256Z,99788.03
2019-03-10T03:55:18.053Z,99786.54
2019-03-10T03:56:52.842Z,99784.04
2019-03-10T03:58:27.933Z,99790.58
2019-03-10T04:00:03.414Z,99786.64
2019-03-10T04:01:57.397Z,99780.06
2019-03-10T04:03:32.271Z,99774.75
2019-03-10T04:05:07.862Z,99778.58
2019-03-10T04:06:42.659Z,99769.36
2019-03-10T04:08:17.462Z,99769.91
2019-03-10T04:09:52.308Z,99777.22
2019-03-10T04:11:27.387Z,99771.19
2019-03-10T04:13:02.173Z,99767.98
2019-03-10T04:14:36.981Z,99766.61
2019-03-10T04:16:11.855Z,99772.65
2019-03-10T04:17:46.892Z,99761.58
2019-03-10T04:19:21.958Z,99760.88
2019-03-10T04:20:56.770Z,99769.16
2019-03-10T04:22:31.600Z,99762.05
2019-03-10T04:24:06.439Z,99765.08
2019-03-10T04:25:41.231Z,99759.85
2019-03-10T04:27:16.311Z,99767.85
2019-03-10T04:28:51.191Z,99774.67
2019-03-10T04:30:26.272Z,99765.52
2019-03-10T04:32:01.082Z,99759.49
2019-03-10T04:33:35.901Z,99760.45
2019-03-10T04:35:10.845Z,99755.50
2019-03-10T04:36:45.634Z,99758.06
2019-03-10T04:38:20.793Z,99747.64
2019-03-10T04:39:55.629Z,99746.31
2019-03-10T04:41:30.433Z,99745.78
2019-03-10T04:43:05.242Z,99740.08
2019-03-10T04:44:40.319Z,99746.42
2019-03-10T04:46:15.152Z,99740.93
2019-03-10T04:47:50.214Z,99741.62
2019-03-10T04:49:25.016Z,99743.03
2019-03-10T04:51:00.083Z,99738.16
2019-03-10T04:52:34.940Z,99736.61
2019-03-10T04:54:09.993Z,99736.47
2019-03-10T04:55:52.481Z,99732.13
2019-03-10T04:57:27.292Z,99735.38
2019-03-10T04:59:02.353Z,99738.59
2019-03-10T05:00:38.891Z,99736.34
2019-03-10T05:02:13.736Z,99735.58
2019-03-10T05:03:48.532Z,99726.91
2019-03-10T05:05:23.337Z,99730.66
2019-03-10T05:06:58.147Z,99725.38
2019-03-10T05:08:33.206Z,99722.44
2019-03-10T05:10:08.366Z,99721.83
2019-03-10T05:11:43.151Z,99715.65
2019-03-10T05:13:18.461Z,99709.20
2019-03-10T05:14:53.517Z,99706.71
2019-03-10T05:16:28.591Z,99697.96
2019-03-10T05:18:03.650Z,99692.41
2019-03-10T05:19:38.473Z,99696.52
2019-03-10T05:21:13.262Z,99687.86
2019-03-10T05:22:48.737Z,99683.23
2019-03-10T05:24:23.536Z,99688.34
2019-03-10T05:25:59.512Z,99690.08
2019-03-10T05:27:34.586Z,99683.81
2019-03-10T05:29:09.422Z,99681.28
2019-03-10T05:30:44.212Z,99675.72
2019-03-10T05:32:19.031Z,99676.34
2019-03-10T05:33:54.084Z,99665.26
2019-03-10T05:35:28.902Z,99668.30
2019-03-10T05:37:03.709Z,99672.06
2019-03-10T05:38:38.499Z,99672.47
2019-03-10T05:40:13.313Z,99665.44
2019-03-10T05:41:48.442Z,99665.81
2019-03-10T05:43:23.269Z,99663.66
2019-03-10T05:44:58.133Z,99656.63
2019-03-10T05:46:33.319Z,99661.58
2019-03-10T05:48:08.391Z,99657.20
2019-03-10T05:49:43.450Z,99659.75
2019-03-10T05:51:18.295Z,99666.70
2019-03-10T05:52:53.141Z,99661.01
2019-03-10T05:54:28.141Z,99658.02
2019-03-10T05:56:02.959Z,99660.94
2019-03-10T05:57:37.759Z,99656.95
2019-03-10T05:59:12.685Z,99659.05
2019-03-10T06:00:47.791Z,99657.05
2019-03-10T06:02:23.147Z,99657.02
2019-03-10T06:03:58.245Z,99662.09
2019-03-10T06:05:33.079Z,99656.95
2019-03-10T06:07:08.139Z,99662.26
2019-03-10T06:08:42.949Z,99666.88
2019-03-10T06:10:17.830Z,99664.86
2019-03-10T06:11:52.824Z,99665.94
2019-03-10T06:13:27.266Z,99664.38
2019-03-10T06:15:01.682Z,99665.77
2019-03-10T06:16:36.078Z,99668.20
2019-03-10T06:18:13.886Z,99664.85
2019-03-10T06:19:46.883Z,99659.77
2019-03-10T06:21:21.385Z,99655.27
2019-03-10T06:22:55.758Z,99650.41
2019-03-10T06:24:30.216Z,99644.20
2019-03-10T06:26:04.821Z,99647.45
2019-03-10T06:27:39.261Z,99641.17
2019-03-10T06:29:13.978Z,99645.42
2019-03-10T06:30:48.751Z,99639.92
2019-03-10T06:32:23.500Z,99639.98
2019-03-10T06:33:57.870Z,99635.80
2019-03-10T06:35:32.252Z,99633.89
2019-03-10T06:37:07.264Z,99633.48
2019-03-10T06:38:41.795Z,99625.70
2019-03-10T06:40:16.770Z,99624.39
2019-03-10T06:41:51.214Z,99623.06
2019-03-10T06:43:25.831Z,99626.42
2019-03-10T06:45:00.295Z,99626.19
2019-03-10T06:46:34.666Z,99621.56
2019-03-10T06:48:09.450Z,99623.02
2019-03-10T06:49:44.379Z,99609.32
2019-03-10T06:51:19.018Z,99607.12
2019-03-10T06:52:53.436Z,99598.77
2019-03-10T06:54:27.855Z,99595.09
2019-03-10T06:56:02.259Z,99582.40
2019-03-10T06:57:36.669Z,99580.47
2019-03-10T06:59:11.311Z,99577.88
2019-03-10T07:00:46.082Z,99582.41
2019-03-10T07:02:20.457Z,99578.52
2019-03-10T07:03:55.013Z,99567.94
2019-03-10T07:05:29.462Z,99558.97
2019-03-10T07:07:03.857Z,99554.44
2019-03-10T07:08:38.244Z,99546.58
2019-03-10T07:10:13.654Z,99544.97
2019-03-10T07:11:48.053Z,99538.13
2019-03-10T07:13:22.496Z,99535.64
2019-03-10T07:14:57.344Z,99536.53
2019-03-10T07:16:32.118Z,99531.28
2019-03-10T07:18:06.954Z,99528.79
2019-03-10T07:19:41.804Z,99519.52
2019-03-10T07:21:16.834Z,99525.42
2019-03-10T07:22:51.763Z,99521.94
2019-03-10T07:24:26.585Z,99523.38
2019-03-10T07:26:08.124Z,99518.59
2019-03-10T07:28:05.016Z,99510.91
2019-03-10T07:29:47.403Z,99495.82
2019-03-10T07:31:27.455Z,99494.30
2019-03-10T07:33:18.226Z,99477.09
2019-03-10T07:35:27.156Z,99467.17
2019-03-10T07:37:20.369Z,99464.30
2019-03-10T07:39:13.915Z,99457.40
2019-03-10T07:41:11.066Z,99463.15
2019-03-10T07:42:51.749Z,99465.50
2019-03-10T07:44:30.870Z,99468.08
2019-03-10T07:46:14.049Z,99476.64
2019-03-10T07:48:10.923Z,99479.39
2019-03-10T07:49:59.043Z,99484.92
2019-03-10T07:51:41.722Z,99482.97
2019-03-10T07:53:32.058Z,99486.31
2019-03-10T07:55:24.678Z,99486.38
2019-03-10T07:57:07.806Z,99490.67
2019-03-10T07:58:51.310Z,99489.42
2019-03-10T08:00:52.123Z,99494.58
2019-03-10T08:02:55.230Z,99495.20
2019-03-10T08:04:52.367Z,99492.36
2019-03-10T08:06:38.822Z,99494.64
2019-03-10T08:08:17.987Z,99490.13
2019-03-10T08:10:02.271Z,99487.73
2019-03-10T08:11:53.365Z,99489.22
2019-03-10T08:13:45.181Z,99486.09
2019-03-10T08:15:33.194Z,99484.42
2019-03-10T08:17:18.735Z,99483.22
2019-03-10T08:19:06.114Z,99484.52
2019-03-10T08:20:50.323Z,99480.38
2019-03-10T08:22:33.988Z,99483.49
2019-03-10T08:24:20.480Z,99479.05
2019-03-10T08:26:00.603Z,99484.61
2019-03-10T08:27:43.338Z,99482.09
2019-03-10T08:29:35.805Z,99479.12
2019-03-10T08:31:35.410Z,99482.73
2019-03-10T08:33:24.817Z,99482.08
2019-03-10T08:35:17.465Z,99480.95
2019-03-10T08:37:06.194Z,99479.88
2019-03-10T08:39:17.954Z,99478.19
2019-03-10T08:41:14.426Z,99475.75
2019-03-10T08:43:05.275Z,99480.32
2019-03-10T08:44:50.042Z,99474.38
2019-03-10T08:46:34.162Z,99468.94
2019-03-10T08:48:21.846Z,99460.58
2019-03-10T08:50:24.777Z,99456.39
2019-03-10T08:52:22.890Z,99458.70
2019-03-10T08:54:22.567Z,99446.35
2019-03-10T08:56:05.963Z,99436.13
2019-03-10T08:57:49.239Z,99436.37
2019-03-10T08:59:51.858Z,99428.03
2019-03-10T09:01:44.544Z,99425.88
2019-03-10T09:03:37.094Z,99422.77
2019-03-10T09:05:22.125Z,99420.11
2019-03-10T09:07:24.806Z,99422.89
2019-03-10T09:09:27.545Z,99413.00
2019-03-10T09:11:12.635Z,99399.66
2019-03-10T09:13:12.235Z,99396.25
2019-03-10T09:15:06.155Z,99398.07
2019-03-10T09:16:58.586Z,99389.93
2019-03-10T09:18:51.126Z,99383.47
2019-03-10T09:20:42.394Z,99375.03
2019-03-10T09:22:44.696Z,99374.02
2019-03-10T09:24:36.944Z,99365.53
2019-03-10T09:26:18.806Z,99357.70
2019-03-10T09:27:59.291Z,99362.23
2019-03-10T09:29:47.223Z,99357.53
2019-03-10T09:31:28.542Z,99349.34
2019-03-10T09:33:10.402Z,99344.23
2019-03-10T09:35:06.919Z,99332.57
2019-03-10T09:36:55.257Z,99328.56
2019-03-10T09:38:51.837Z,99316.16
2019-03-10T09:40:34.849Z,99311.41
2019-03-10T09:42:22.424Z,99313.52
2019-03-10T09:44:12.598Z,99315.05
2019-03-10T09:45:54.166Z,99320.12
2019-03-10T09:47:35.963Z,99304.97
2019-03-10T09:49:24.834Z,99309.42
2019-03-10T09:51:11.542Z,99301.63
2019-03-10T09:53:05.013Z,99297.67
2019-03-10T09:55:17.167Z,99289.21
2019-03-10T09:57:16.694Z,99292.83
2019-03-10T09:59:03.394Z,99281.23
2019-03-10T10:01:02.965Z,99281.89
2019-03-10T10:02:52.652Z,99271.95
2019-03-10T10:04:46.268Z,99276.54
2019-03-10T10:06:28.875Z,99270.23
2019-03-10T10:08:40.573Z,99269.58
2019-03-10T10:10:21.270Z,99268.09
2019-03-10T10:12:32.776Z,99271.41
2019-03-10T10:14:29.661Z,99262.41
2019-03-10T10:16:21.794Z,99257.30
2019-03-10T10:18:06.946Z,99257.58
2019-03-10T10:20:00.811Z,99244.79
2019-03-10T10:21:58.466Z,99242.71
2019-03-10T10:23:51.632Z,99228.09
2019-03-10T10:26:00.532Z,99220.90
2019-03-10T10:27:55.818Z,99223.81
2019-03-10T10:29:48.122Z,99212.22
2019-03-10T10:31:34.627Z,99209.02
2019-03-10T10:33:34.082Z,99201.83
2019-03-10T10:35:30.924Z,99201.88
2019-03-10T10:37:36.862Z,99190.45
2019-03-10T10:39:21.782Z,99186.63
2019-03-10T10:41:14.523Z,99178.72
2019-03-10T10:43:07.045Z,99179.11
2019-03-10T10:45:16.623Z,99175.18
2019-03-10T10:47:01.912Z,99177.58
2019-03-10T10:48:44.018Z,99166.77
2019-03-10T10:50:26.078Z,99160.77
2019-03-10T10:52:25.749Z,99155.73
2019-03-10T10:54:17.391Z,99152.05
2019-03-10T10:56:01.080Z,99139.94
2019-03-10T10:57:47.045Z,99135.48
2019-03-10T10:59:37.595Z,99128.25
2019-03-10T11:01:29.843Z,99117.67
2019-03-10T11:03:12.642Z,99119.97
2019-03-10T11:04:56.163Z,99113.15
2019-03-10T11:07:05.419Z,99100.83
2019-03-10T11:09:06.356Z,99096.52
2019-03-10T11:11:03.994Z,99078.93
2019-03-10T11:12:56.866Z,99077.20
2019-03-10T11:14:51.380Z,99068.52
2019-03-10T11:16:48.537Z,99060.12
2019-03-10T11:18:51.741Z,99049.65
2019-03-10T11:20:41.726Z,99049.66
2019-03-10T11:22:24.779Z,99038.58
2019-03-10T11:24:22.811Z,99037.25
2019-03-10T11:26:16.280Z,99024.30
2019-03-10T11:28:06.156Z,99027.17
2019-03-10T11:29:46.584Z,99023.08
2019-03-10T11:31:29.944Z,99016.23
2019-03-10T11:33:24.257Z,99005.44
2019-03-10T11:35:07.001Z,99003.19
2019-03-10T11:37:00.060Z,98991.74
2019-03-10T11:38:41.725Z,98984.20
2019-03-10T11:40:34.206Z,98977.84
2019-03-10T11:42:36.384Z,98974.95
2019-03-10T11:44:29.096Z,98957.74
2019-03-10T11:46:25.754Z,98956.43
2019-03-10T11:48:19.573Z,98939.79
2019-03-10T11:50:01.791Z,98938.05
2019-03-10T11:52:04.415Z,98922.38
2019-03-10T11:54:01.124Z,98914.66
2019-03-10T11:55:52.762Z,98904.37
2019-03-10T11:57:32.565Z,98898.91
2019-03-10T11:59:20.641Z,98885.52
2019-03-10T12:01:02.890Z,98878.58
2019-03-10T12:02:42.654Z,98870.81
2019-03-10T12:04:35.054Z,98868.68
2019-03-10T12:06:18.244Z,98861.45
2019-03-10T12:08:10.794Z,98856.84
2019-03-10T12:09:45.304Z,98856.52
2019-03-10T12:11:19.783Z,98854.80
2019-03-10T12:12:54.202Z,98842.19
2019-03-10T12:14:28.641Z,98839.67
2019-03-10T12:16:03.249Z,98823.16
2019-03-10T12:17:37.651Z,98816.30
2019-03-10T12:19:12.129Z,98802.91
2019-03-10T12:20:46.573Z,98799.55
2019-03-10T12:22:21.293Z,98801.00
2019-03-10T12:23:56.192Z,98795.80
2019-03-10T12:25:30.867Z,98783.65
2019-03-10T12:27:05.699Z,98783.37
2019-03-10T12:28:41.619Z,98773.99
2019-03-10T12:30:16.555Z,98773.69
2019-03-10T12:31:51.230Z,98765.78
2019-03-10T12:33:26.399Z,98759.70
2019-03-10T12:35:00.794Z,98764.52
2019-03-10T12:36:35.573Z,98770.59
2019-03-10T12:38:10.429Z,98746.19
2019-03-10T12:39:45.458Z,98722.70
2019-03-10T12:41:19.993Z,98715.04
2019-03-10T12:42:54.514Z,98729.81
2019-03-10T12:44:30.659Z,98708.44
2019-03-10T12:46:05.792Z,98693.45
2019-03-10T12:47:40.320Z,98705.32
2019-03-10T12:49:14.754Z,98710.89
2019-03-10T12:50:49.225Z,98684.81
2019-03-10T12:52:23.934Z,98678.05
2019-03-10T12:53:58.306Z,98674.22
2019-03-10T12:55:32.701Z,98681.42
2019-03-10T12:57:07.069Z,98655.99
2019-03-10T12:58:41.869Z,98627.53
2019-03-10T13:00:16.824Z,98638.17
2019-03-10T13:01:51.498Z,98640.81
2019-03-10T13:03:25.974Z,98647.83
2019-03-10T13:05:00.550Z,98640.16
2019-03-10T13:06:35.389Z,98634.84
2019-03-10T13:08:10.154Z,98636.78
2019-03-10T13:09:44.938Z,98630.39
2019-03-10T13:11:19.650Z,98632.89
2019-03-10T13:12:54.109Z,98636.36
2019-03-10T13:14:30.868Z,98625.25
2019-03-10T13:16:05.251Z,98621.05
2019-03-10T13:17:39.639Z,98618.28
2019-03-10T13:19:14.382Z,98619.59
2019-03-10T13:20:49.138Z,98631.50
2019-03-10T13:22:23.956Z,98623.07
2019-03-10T13:23:58.477Z,98622.48
2019-03-10T13:25:33.595Z,98610.43
2019-03-10T13:27:08.376Z,98598.16
2019-03-10T13:28:43.137Z,98603.50
2019-03-10T13:30:17.866Z,98594.89
2019-03-10T13:31:52.513Z,98582.18
2019-03-10T13:33:27.220Z,98569.40
2019-03-10T13:35:02.284Z,98571.56
2019-03-10T13:36:37.472Z,98568.03
2019-03-10T13:38:13.013Z,98567.04
2019-03-10T13:39:47.856Z,98571.23
2019-03-10T13:41:22.731Z,98548.73
2019-03-10T13:42:57.527Z,98553.41
2019-03-10T13:44:32.434Z,98558.03
2019-03-10T13:46:07.234Z,98534.30
2019-03-10T13:47:42.024Z,98528.83
2019-03-10T13:49:16.875Z,98527.45
2019-03-10T13:50:51.781Z,98519.92
2019-03-10T13:52:26.604Z,98511.73
2019-03-10T13:54:01.660Z,98497.85
2019-03-10T13:55:36.566Z,98500.83
2019-03-10T13:57:11.648Z,98502.48
2019-03-10T13:58:46.451Z,98481.21
2019-03-10T14:00:22.574Z,98489.16
2019-03-10T14:01:58.007Z,98475.34
2019-03-10T14:03:33.202Z,98481.86
2019-03-10T14:05:09.025Z,98479.28
2019-03-10T14:06:43.848Z,98482.86
2019-03-10T14:08:19.174Z,98486.07
2019-03-10T14:09:53.968Z,98488.97
2019-03-10T14:11:29.057Z,98480.09
2019-03-10T14:13:03.850Z,98481.20
2019-03-10T14:14:38.698Z,98470.23
2019-03-10T14:16:13.509Z,98466.81
2019-03-10T14:17:48.567Z,98460.30
2019-03-10T14:19:24.089Z,98470.28
2019-03-10T14:20:59.819Z,98454.04
2019-03-10T14:22:34.622Z,98456.39
2019-03-10T14:24:09.425Z,98455.96
2019-03-10T14:25:44.304Z,98460.88
2019-03-10T14:27:18.907Z,98462.27
2019-03-10T14:28:53.607Z,98463.56
2019-03-10T14:30:28.015Z,98461.73
2019-03-10T14:32:02.611Z,98457.70
2019-03-10T14:33:37.122Z,98461.19
2019-03-10T14:35:11.807Z,98463.48
2019-03-10T14:36:46.289Z,98463.83
2019-03-10T14:38:21.181Z,98453.73
2019-03-10T14:39:55.750Z,98466.70
2019-03-10T14:41:30.412Z,98432.19
2019-03-10T14:43:05.046Z,98442.28
2019-03-10T14:44:39.522Z,98431.20
2019-03-10T14:46:14.024Z,98431.87
2019-03-10T14:47:48.902Z,98437.83
2019-03-10T14:49:23.791Z,98431.52
2019-03-10T14:50:58.567Z,98443.23
2019-03-10T14:52:33.284Z,98447.31
2019-03-10T14:54:07.732Z,98449.55
2019-03-10T14:55:42.703Z,98447.94
2019-03-10T14:57:17.496Z,98451.60
2019-03-10T14:58:52.333Z,98457.89
2019-03-10T15:00:27.716Z,98458.52
2019-03-10T15:02:02.625Z,98446.26
2019-03-10T15:03:37.483Z,98448.56
2019-03-10T15:05:12.821Z,98452.91
2019-03-10T15:06:47.911Z,98460.47
2019-03-10T15:08:22.972Z,98474.50
2019-03-10T15:09:57.776Z,98485.08
2019-03-10T15:11:32.835Z,98497.23
2019-03-10T15:13:07.683Z,98500.69
2019-03-10T15:14:42.478Z,98484.27
2019-03-10T15:16:16.886Z,98483.81
2019-03-10T15:17:51.245Z,98506.08
2019-03-10T15:19:25.672Z,98497.26
2019-03-10T15:21:00.038Z,98494.17
2019-03-10T15:22:35.000Z,98482.30
2019-03-10T15:24:09.802Z,98493.91
2019-03-10T15:25:44.608Z,98497.41
2019-03-10T15:27:23.160Z,98500.88
2019-03-10T15:28:56.264Z,98494.16
2019-03-10T15:30:31.762Z,98505.27
2019-03-10T15:32:07.348Z,98510.24
2019-03-10T15:33:42.474Z,98519.27
2019-03-10T15:35:17.431Z,98532.80
2019-03-10T15:36:52.233Z,98538.38
2019-03-10T15:38:27.364Z,98541.03
2019-03-10T15:40:02.415Z,98521.98
2019-03-10T15:41:37.230Z,98509.44
2019-03-10T15:43:12.063Z,98507.00
2019-03-10T15:44:46.891Z,98513.00
2019-03-10T15:46:22.006Z,98494.65
2019-03-10T15:47:57.055Z,98463.67
2019-03-10T15:49:31.847Z,98457.58
2019-03-10T15:51:07.049Z,98458.12
2019-03-10T15:52:41.902Z,98446.05
2019-03-10T15:54:16.745Z,98455.98
2019-03-10T15:55:51.671Z,98460.28
2019-03-10T15:57:26.897Z,98461.33
2019-03-10T15:59:02.058Z,98464.31
2019-03-10T16:00:37.012Z,98464.70
2019-03-10T16:02:12.284Z,98469.66
2019-03-10T16:03:47.113Z,98472.94
2019-03-10T16:05:22.368Z,98474.45
2019-03-10T16:06:57.557Z,98468.05
2019-03-10T16:08:32.815Z,98464.91
2019-03-10T16:10:08.663Z,98451.79
2019-03-10T16:11:44.071Z,98443.00
2019-03-10T16:13:19.200Z,98449.02
2019-03-10T16:14:54.429Z,98446.84
2019-03-10T16:16:29.241Z,98455.38
2019-03-10T16:18:04.132Z,98457.06
2019-03-10T16:19:39.395Z,98456.72
2019-03-10T16:21:14.545Z,98464.22
2019-03-10T16:22:49.400Z,98464.22
2019-03-10T16:24:24.205Z,98459.91
2019-03-10T16:26:00.958Z,98460.70
2019-03-10T16:27:36.192Z,98453.91
2019-03-10T16:29:11.319Z,98458.66
2019-03-10T16:30:46.140Z,98456.41
2019-03-10T16:32:20.962Z,98452.96
2019-03-10T16:33:56.095Z,98458.01
2019-03-10T16:35:31.177Z,98456.02
2019-03-10T16:37:06.366Z,98463.66
2019-03-10T16:38:41.185Z,98464.75
2019-03-10T16:40:16.590Z,98456.17
2019-03-10T16:41:51.405Z,98457.52
2019-03-10T16:43:26.231Z,98455.63
2019-03-10T16:45:01.065Z,98455.38
2019-03-10T16:46:35.888Z,98473.31
2019-03-10T16:48:10.718Z,98464.02
2019-03-10T16:49:45.543Z,98458.05
2019-03-10T16:51:20.373Z,98469.70
2019-03-10T16:52:55.307Z,98490.96
2019-03-10T16:54:30.441Z,98493.17
2019-03-10T16:56:05.407Z,98489.02
2019-03-10T16:57:40.229Z,98478.63
2019-03-10T16:59:15.070Z,98483.20
2019-03-10T17:00:49.882Z,98488.41
2019-03-10T17:02:24.684Z,98474.38
2019-03-10T17:03:59.994Z,98471.19
2019-03-10T17:05:35.195Z,98470.58
2019-03-10T17:07:12.646Z,98484.87
2019-03-10T17:08:47.731Z,98481.33
2019-03-10T17:10:22.942Z,98479.36
2019-03-10T17:11:57.930Z,98486.35
2019-03-10T17:13:32.800Z,98507.11
2019-03-10T17:15:09.702Z,98554.27
2019-03-10T17:16:44.529Z,98555.82
2019-03-10T17:18:19.666Z,98555.23
2019-03-10T17:19:54.453Z,98558.81
2019-03-10T17:21:29.594Z,98545.91
2019-03-10T17:23:04.767Z,98536.25
2019-03-10T17:24:39.932Z,98534.42
2019-03-10T17:26:14.737Z,98521.79
2019-03-10T17:27:49.723Z,98535.96
2019-03-10T17:29:24.840Z,98536.25
2019-03-10T17:30:59.703Z,98528.70
2019-03-10T17:32:37.114Z,98542.20
2019-03-10T17:34:11.773Z,98548.11
2019-03-10T17:35:47.008Z,98545.26
2019-03-10T17:37:22.133Z,98534.43
2019-03-10T17:38:57.373Z,98540.58
2019-03-10T17:40:32.196Z,98535.09
2019-03-10T17:42:07.127Z,98539.56
2019-03-10T17:43:42.221Z,98542.08
2019-03-10T17:45:18.845Z,98547.64
2019-03-10T17:46:53.681Z,98546.11
2019-03-10T17:48:28.824Z,98554.72
2019-03-10T17:50:04.168Z,98545.06
2019-03-10T17:51:38.996Z,98556.00
2019-03-10T17:53:14.161Z,98552.06
2019-03-10T17:54:49.023Z,98548.98
2019-03-10T17:56:24.116Z,98556.36
2019-03-10T17:57:58.929Z,98552.09
2019-03-10T17:59:33.741Z,98559.73
2019-03-10T18:01:08.625Z,98558.23
2019-03-10T18:02:43.495Z,98562.14
2019-03-10T18:04:18.544Z,98562.42
2019-03-10T18:05:53.612Z,98580.54
2019-03-10T18:07:28.469Z,98579.23
2019-03-10T18:09:03.690Z,98567.81
2019-03-10T18:10:38.850Z,98582.67
2019-03-10T18:12:13.684Z,98582.63
2019-03-10T18:13:48.525Z,98572.53
2019-03-10T18:15:23.734Z,98579.75
2019-03-10T18:16:58.850Z,98569.49
2019-03-10T18:18:33.665Z,98572.39
2019-03-10T18:20:12.037Z,98559.38
2019-03-10T18:21:46.851Z,98567.03
2019-03-10T18:23:21.677Z,98581.84
2019-03-10T18:24:56.585Z,98558.06
2019-03-10T18:26:31.572Z,98588.07
2019-03-10T18:28:06.525Z,98597.53
2019-03-10T18:29:41.625Z,98584.18
2019-03-10T18:31:16.771Z,98588.19
2019-03-10T18:32:51.758Z,98569.31
2019-03-10T18:34:27.096Z,98587.83
2019-03-10T18:36:02.390Z,98592.55
2019-03-10T18:37:38.246Z,98602.41
2019-03-10T18:39:13.410Z,98625.98
2019-03-10T18:40:48.134Z,98613.14
2019-03-10T18:42:22.866Z,98585.28
2019-03-10T18:43:57.610Z,98577.66
2019-03-10T18:45:32.450Z,98582.99
2019-03-10T18:47:07.122Z,98593.56
2019-03-10T18:48:41.822Z,98608.98
2019-03-10T18:50:17.004Z,98596.69
2019-03-10T18:51:51.509Z,98603.22
2019-03-10T18:53:27.131Z,98616.16
2019-03-10T18:55:01.498Z,98578.94
2019-03-10T18:56:35.878Z,98612.42
2019-03-10T18:58:10.290Z,98605.55
2019-03-10T18:59:44.992Z,98587.56
2019-03-10T19:01:19.622Z,98585.33
2019-03-10T19:02:54.331Z,98614.16
2019-03-10T19:04:28.798Z,98616.84
2019-03-10T19:06:03.669Z,98626.63
2019-03-10T19:07:38.106Z,98622.95
2019-03-10T19:09:12.551Z,98609.56
2019-03-10T19:10:47.415Z,98617.53
2019-03-10T19:12:21.787Z,98607.52
2019-03-10T19:13:56.450Z,98617.42
2019-03-10T19:15:30.825Z,98634.55
2019-03-10T19:17:05.368Z,98630.71
2019-03-10T19:18:40.102Z,98616.47
2019-03-10T19:20:15.489Z,98622.43
2019-03-10T19:21:50.268Z,98609.69
2019-03-10T19:23:25.199Z,98602.57